Airfield :
LOGIN :

Register | Disclaimer

   EN    FR    IT 

 










Legend :    VFR   Marginal VFR   IFR   Intensive IFR   Very Intensive IFR
Visi :
Ceiling :
>= 8 km
>= 3000ft
5 to 8 km
1000 to 3000 ft
1500m to 5 km
500 to 1000 ft
800 to 1500m
200 to 500 ft
< 800m
< 200 ft
Symbols :   Thunderstorms  Fog  Heavy snow  Heavy precipitations  Wind > 20 kt
SIGMETs :     Misc.  Thunderstorms  Icing  Turbulence  Mountain Waves  Volcanic Ashes






- Airport Elevation : 11 ft
- IATA code : MJV


LELC - Murcia San Javier

CURRENT METAR :
  • 221500Z 02006KT 350V050 8000 SCT020 BKN035 11/10 Q1028 NOSIG

EXPIRED METARs :
  • 221430Z 04006KT 360V110 8000 FEW013 SCT025 BKN035 12/10 Q1028 NOSIG
  • 221400Z VRB02KT 8000 SCT025 BKN035 12/10 Q1028 NOSIG
  • 221330Z 11010KT 070V140 8000 -RA SCT018 BKN035 12/09 Q1029 NOSIG
  • 221300Z 09005KT 050V130 8000 SCT020 BKN035 13/10 Q1029 NOSIG
  • 221230Z 07006KT 020V130 9000 SCT020 BKN035 13/10 Q1029 NOSIG

TAF TAF LELC
Valid from the 22 at 12:00 until the 23 at 12:00 UTC


221100Z 2212/2312 07009KT 9999 SCT020 BKN030 TX14/2214Z TN09/2306Z
TEMPO 2212/2220 4000 RA



MET'MAP, your aeronautical weather chart ! - Copyright ORBIFLY December 2007 - Disclaimer

ORBIFLY MET'MAP TEAM :

Programming & Development : Alexandra Zaïnal
Concept & original design : Baudouin d'Aumeries
Assistance for programming : Marc-Olivier Méhu
Technical & hardware support : Manuel Goepfert

Contact : metmap@orbifly.com




SOURCES & CREDITS :

   NOAA